Time;durP1;ratioP1;P1;durP2;ratioP2;P2;SDS_P1;SDS_P2;PMS_P1;PMS_P2;Temp;Humidity;BMP_temperature;BMP_pressure;BME280_temperature;BME280_humidity;BME280_pressure;Samples;Min_cycle;Max_cycle;Signal;HPM_P1;HPM_P2
2020/08/30 17:10:05;;;;;;;1.3;1.2;;;;;;;15.49;100;94673.77;;;;
2020/08/30 17:11:11;;;;;;;1.3;1.2;;;;;;;15.49;100;94673.77;;;;
2020/08/30 17:12:19;;;;;;;1.3;1.2;;;;;;;15.49;100;94673.77;;;;
2020/08/30 17:13:24;;;;;;;1.3;1.2;;;;;;;15.49;100;94673.77;;;;
2020/08/30 17:14:31;;;;;;;1.3;1.2;;;;;;;15.49;100;94673.77;;;;
2020/08/30 17:15:36;;;;;;;1.3;1.2;;;;;;;15.49;100;94673.77;;;;
2020/08/30 17:16:41;;;;;;;1.3;1.2;;;;;;;15.49;100;94673.77;;;;
2020/08/30 17:17:47;;;;;;;1.3;1.2;;;;;;;15.49;100;94673.77;;;;
2020/08/30 17:19:01;;;;;;;1.3;1.2;;;;;;;15.49;100;94673.77;;;;
2020/08/30 17:20:05;;;;;;;1.35;1.25;;;;;;;15.07;100;94681.17;;;;
2020/08/30 17:21:12;;;;;;;1.35;1.25;;;;;;;15.07;100;94681.17;;;;
2020/08/30 17:22:18;;;;;;;1.35;1.25;;;;;;;15.07;100;94681.17;;;;
2020/08/30 17:23:26;;;;;;;1.35;1.25;;;;;;;15.07;100;94681.17;;;;
2020/08/30 17:24:32;;;;;;;1.35;1.25;;;;;;;15.07;100;94681.17;;;;
2020/08/30 17:25:37;;;;;;;1.35;1.25;;;;;;;15.07;100;94681.17;;;;
2020/08/30 17:26:46;;;;;;;1.35;1.25;;;;;;;15.07;100;94681.17;;;;
2020/08/30 17:27:51;;;;;;;1.35;1.25;;;;;;;15.07;100;94681.17;;;;
2020/08/30 17:28:56;;;;;;;1.35;1.25;;;;;;;15.07;100;94681.17;;;;
2020/08/30 17:30:02;;;;;;;1.35;1.25;;;;;;;15.07;100;94681.17;;;;
2020/08/30 17:31:09;;;;;;;0.9;0.9;;;;;;;14.74;100;94705.87;;;;
2020/08/30 17:32:14;;;;;;;0.9;0.9;;;;;;;14.74;100;94705.87;;;;
2020/08/30 17:33:20;;;;;;;0.9;0.9;;;;;;;14.74;100;94705.87;;;;
2020/08/30 17:34:26;;;;;;;0.9;0.9;;;;;;;14.74;100;94705.87;;;;
2020/08/30 17:35:30;;;;;;;0.9;0.9;;;;;;;14.74;100;94705.87;;;;
2020/08/30 17:36:36;;;;;;;0.9;0.9;;;;;;;14.74;100;94705.87;;;;
2020/08/30 17:37:43;;;;;;;0.9;0.9;;;;;;;14.74;100;94705.87;;;;
2020/08/30 17:38:49;;;;;;;0.9;0.9;;;;;;;14.74;100;94705.87;;;;
2020/08/30 17:39:53;;;;;;;0.9;0.9;;;;;;;14.74;100;94705.87;;;;
2020/08/30 17:40:58;;;;;;;0.9;0.9;;;;;;;14.74;100;94705.87;;;;
2020/08/30 17:42:03;;;;;;;0.8;0.8;;;;;;;14.29;100;94738.81;;;;
2020/08/30 17:43:08;;;;;;;0.8;0.8;;;;;;;14.29;100;94738.81;;;;
2020/08/30 17:44:13;;;;;;;0.8;0.8;;;;;;;14.29;100;94738.81;;;;
2020/08/30 17:45:20;;;;;;;0.8;0.8;;;;;;;14.29;100;94738.81;;;;
2020/08/30 17:46:27;;;;;;;0.8;0.8;;;;;;;14.29;100;94738.81;;;;
2020/08/30 17:47:34;;;;;;;0.8;0.8;;;;;;;14.29;100;94738.81;;;;
2020/08/30 17:48:39;;;;;;;0.8;0.8;;;;;;;14.29;100;94738.81;;;;
2020/08/30 17:49:44;;;;;;;0.8;0.8;;;;;;;14.29;100;94738.81;;;;
2020/08/30 17:50:49;;;;;;;0.8;0.8;;;;;;;14.29;100;94738.81;;;;
2020/08/30 17:51:54;;;;;;;1.4;1;;;;;;;13.55;100;94764.72;;;;
2020/08/30 17:53:00;;;;;;;1.4;1;;;;;;;13.55;100;94764.72;;;;
2020/08/30 17:54:07;;;;;;;1.4;1;;;;;;;13.55;100;94764.72;;;;
2020/08/30 17:55:19;;;;;;;1.4;1;;;;;;;13.55;100;94764.72;;;;
2020/08/30 17:56:37;;;;;;;1.4;1;;;;;;;13.55;100;94764.72;;;;
2020/08/30 17:57:53;;;;;;;1.4;1;;;;;;;13.55;100;94764.72;;;;
2020/08/30 17:58:57;;;;;;;1.4;1;;;;;;;13.55;100;94764.72;;;;
2020/08/30 17:59:58;;;;;;;1.4;1;;;;;;;13.55;100;94764.72;;;;
2020/08/30 18:01:07;;;;;;;1.4;1;;;;;;;13.55;100;94764.72;;;;
2020/08/30 18:02:14;;;;;;;1.4;1;;;;;;;13.55;100;94764.72;;;;
2020/08/30 18:03:32;;;;;;;0.9;0.9;;;;;;;12.93;100;94793.16;;;;
2020/08/30 18:04:38;;;;;;;0.9;0.9;;;;;;;12.93;100;94793.16;;;;
2020/08/30 18:05:39;;;;;;;0.9;0.9;;;;;;;12.93;100;94793.16;;;;
2020/08/30 18:06:43;;;;;;;0.9;0.9;;;;;;;12.93;100;94793.16;;;;
2020/08/30 18:07:51;;;;;;;0.9;0.9;;;;;;;12.93;100;94793.16;;;;
2020/08/30 18:08:58;;;;;;;0.9;0.9;;;;;;;12.93;100;94793.16;;;;
2020/08/30 18:10:06;;;;;;;0.9;0.9;;;;;;;12.93;100;94793.16;;;;
2020/08/30 18:11:13;;;;;;;0.9;0.9;;;;;;;12.93;100;94793.16;;;;
2020/08/30 18:12:20;;;;;;;0.9;0.9;;;;;;;12.93;100;94793.16;;;;
2020/08/30 18:13:25;;;;;;;1;0.85;;;;;;;12.6;100;94824.2;;;;
2020/08/30 18:14:31;;;;;;;1;0.85;;;;;;;12.6;100;94824.2;;;;
2020/08/30 18:15:36;;;;;;;1;0.85;;;;;;;12.6;100;94824.2;;;;
2020/08/30 18:16:40;;;;;;;1;0.85;;;;;;;12.6;100;94824.2;;;;
2020/08/30 18:17:47;;;;;;;1;0.85;;;;;;;12.6;100;94824.2;;;;
2020/08/30 18:18:49;;;;;;;1;0.85;;;;;;;12.6;100;94824.2;;;;
2020/08/30 18:19:55;;;;;;;1;0.85;;;;;;;12.6;100;94824.2;;;;
2020/08/30 18:21:01;;;;;;;1;0.85;;;;;;;12.6;100;94824.2;;;;
2020/08/30 18:22:06;;;;;;;1;0.85;;;;;;;12.6;100;94824.2;;;;
2020/08/30 18:23:11;;;;;;;1;0.85;;;;;;;12.6;100;94824.2;;;;
2020/08/30 18:24:16;;;;;;;1;1;;;;;;;12.38;100;94844.61;;;;
2020/08/30 18:25:22;;;;;;;1;1;;;;;;;12.38;100;94844.61;;;;
2020/08/30 18:26:28;;;;;;;1;1;;;;;;;12.38;100;94844.61;;;;
2020/08/30 18:27:34;;;;;;;1;1;;;;;;;12.38;100;94844.61;;;;
2020/08/30 18:28:39;;;;;;;1;1;;;;;;;12.38;100;94844.61;;;;
2020/08/30 18:29:44;;;;;;;1;1;;;;;;;12.38;100;94844.61;;;;
2020/08/30 18:30:49;;;;;;;1;1;;;;;;;12.38;100;94844.61;;;;
2020/08/30 18:31:54;;;;;;;1;1;;;;;;;12.38;100;94844.61;;;;
2020/08/30 18:33:01;;;;;;;1;1;;;;;;;12.38;100;94844.61;;;;
2020/08/30 18:34:08;;;;;;;1;1;;;;;;;12.38;100;94844.61;;;;
2020/08/30 18:35:27;;;;;;;0.9;0.9;;;;;;;12.18;100;94869.19;;;;
2020/08/30 18:51:36;;;;;;;0.9;0.9;;;;;;;12.11;100;94894.81;;;;
2020/08/30 18:52:40;;;;;;;0.9;0.9;;;;;;;12.11;100;94894.81;;;;
2020/08/30 18:53:44;;;;;;;0.9;0.9;;;;;;;12.11;100;94894.81;;;;
2020/08/30 18:54:49;;;;;;;0.9;0.9;;;;;;;12.11;100;94894.81;;;;
2020/08/30 18:56:03;;;;;;;0.8;0.8;;;;;;;12.08;100;94912.92;;;;
2020/08/30 18:57:11;;;;;;;0.8;0.8;;;;;;;12.08;100;94912.92;;;;
2020/08/30 18:58:18;;;;;;;0.8;0.8;;;;;;;12.08;100;94912.92;;;;
2020/08/30 18:59:21;;;;;;;0.8;0.8;;;;;;;12.08;100;94912.92;;;;
2020/08/30 19:00:26;;;;;;;0.8;0.8;;;;;;;12.08;100;94912.92;;;;
2020/08/30 19:01:31;;;;;;;0.8;0.8;;;;;;;12.08;100;94912.92;;;;
2020/08/30 19:02:38;;;;;;;0.8;0.8;;;;;;;12.08;100;94912.92;;;;
2020/08/30 19:03:42;;;;;;;0.8;0.8;;;;;;;12.08;100;94912.92;;;;
2020/08/30 19:04:47;;;;;;;0.8;0.8;;;;;;;12.08;100;94912.92;;;;
2020/08/30 19:05:51;;;;;;;0.8;0.8;;;;;;;12.08;100;94912.92;;;;
2020/08/30 19:06:56;;;;;;;0.9;0.9;;;;;;;12.01;100;94931.67;;;;
2020/08/30 19:08:01;;;;;;;0.9;0.9;;;;;;;12.01;100;94931.67;;;;
2020/08/30 19:09:06;;;;;;;0.9;0.9;;;;;;;12.01;100;94931.67;;;;
2020/08/30 19:10:12;;;;;;;0.9;0.9;;;;;;;12.01;100;94931.67;;;;
2020/08/30 19:11:19;;;;;;;0.9;0.9;;;;;;;12.01;100;94931.67;;;;
2020/08/30 19:12:40;;;;;;;0.9;0.9;;;;;;;12.01;100;94931.67;;;;
2020/08/30 19:13:47;;;;;;;0.9;0.9;;;;;;;12.01;100;94931.67;;;;
2020/08/30 19:14:52;;;;;;;0.9;0.9;;;;;;;12.01;100;94931.67;;;;
2020/08/30 19:15:56;;;;;;;0.9;0.9;;;;;;;12.01;100;94931.67;;;;
2020/08/30 19:17:04;;;;;;;0.9;0.9;;;;;;;12.01;100;94931.67;;;;
2020/08/30 19:18:15;;;;;;;0.9;0.9;;;;;;;12.08;100;94942.16;;;;
2020/08/30 19:19:21;;;;;;;0.9;0.9;;;;;;;12.08;100;94942.16;;;;
2020/08/30 19:20:29;;;;;;;0.9;0.9;;;;;;;12.08;100;94942.16;;;;
2020/08/30 19:21:33;;;;;;;0.9;0.9;;;;;;;12.08;100;94942.16;;;;
2020/08/30 19:22:38;;;;;;;0.9;0.9;;;;;;;12.08;100;94942.16;;;;
2020/08/30 19:23:43;;;;;;;0.9;0.9;;;;;;;12.08;100;94942.16;;;;
2020/08/30 19:24:48;;;;;;;0.9;0.9;;;;;;;12.08;100;94942.16;;;;
2020/08/30 19:25:54;;;;;;;0.9;0.9;;;;;;;12.08;100;94942.16;;;;
2020/08/30 19:27:00;;;;;;;0.9;0.9;;;;;;;12.08;100;94942.16;;;;
2020/08/30 19:28:05;;;;;;;1.2;1;;;;;;;12.19;100;94965.58;;;;
2020/08/30 19:29:09;;;;;;;1.2;1;;;;;;;12.19;100;94965.58;;;;
2020/08/30 19:30:15;;;;;;;1.2;1;;;;;;;12.19;100;94965.58;;;;
2020/08/30 19:31:21;;;;;;;1.2;1;;;;;;;12.19;100;94965.58;;;;
2020/08/30 19:32:29;;;;;;;1.2;1;;;;;;;12.19;100;94965.58;;;;
2020/08/30 19:33:34;;;;;;;1.2;1;;;;;;;12.19;100;94965.58;;;;
2020/08/30 19:34:35;;;;;;;1.2;1;;;;;;;12.19;100;94965.58;;;;
2020/08/30 19:35:40;;;;;;;1.2;1;;;;;;;12.19;100;94965.58;;;;
2020/08/30 19:36:46;;;;;;;1.2;1;;;;;;;12.19;100;94965.58;;;;
2020/08/30 19:37:51;;;;;;;1.2;1;;;;;;;12.19;100;94965.58;;;;
2020/08/30 19:38:58;;;;;;;1.55;1;;;;;;;12.19;100;94975.98;;;;
2020/08/30 19:40:04;;;;;;;1.55;1;;;;;;;12.19;100;94975.98;;;;
2020/08/30 19:41:11;;;;;;;1.55;1;;;;;;;12.19;100;94975.98;;;;
2020/08/30 19:42:16;;;;;;;1.55;1;;;;;;;12.19;100;94975.98;;;;
2020/08/30 19:43:22;;;;;;;1.55;1;;;;;;;12.19;100;94975.98;;;;
2020/08/30 19:44:27;;;;;;;1.55;1;;;;;;;12.19;100;94975.98;;;;
2020/08/30 19:45:32;;;;;;;1.55;1;;;;;;;12.19;100;94975.98;;;;
2020/08/30 19:46:38;;;;;;;1.55;1;;;;;;;12.19;100;94975.98;;;;
2020/08/30 19:47:44;;;;;;;1.55;1;;;;;;;12.19;100;94975.98;;;;
2020/08/30 19:48:50;;;;;;;1.55;1;;;;;;;12.19;100;94975.98;;;;
2020/08/30 19:49:54;;;;;;;1;1;;;;;;;12.18;100;95007.37;;;;
2020/08/30 19:50:59;;;;;;;1;1;;;;;;;12.18;100;95007.37;;;;
2020/08/30 19:52:06;;;;;;;1;1;;;;;;;12.18;100;95007.37;;;;
2020/08/30 19:53:10;;;;;;;1;1;;;;;;;12.18;100;95007.37;;;;
2020/08/30 19:54:17;;;;;;;1;1;;;;;;;12.18;100;95007.37;;;;
2020/08/30 19:55:22;;;;;;;1;1;;;;;;;12.18;100;95007.37;;;;
2020/08/30 19:56:28;;;;;;;1;1;;;;;;;12.18;100;95007.37;;;;
2020/08/30 19:57:35;;;;;;;1;1;;;;;;;12.18;100;95007.37;;;;
2020/08/30 19:58:41;;;;;;;1;1;;;;;;;12.18;100;95007.37;;;;
2020/08/30 19:59:47;;;;;;;1;1;;;;;;;12.18;100;95007.37;;;;
2020/08/30 20:00:52;;;;;;;2.7;2.2;;;;;;;12.25;100;95017.88;;;;
2020/08/30 20:01:56;;;;;;;2.7;2.2;;;;;;;12.25;100;95017.88;;;;
2020/08/30 20:03:01;;;;;;;2.7;2.2;;;;;;;12.25;100;95017.88;;;;
2020/08/30 20:04:07;;;;;;;2.7;2.2;;;;;;;12.25;100;95017.88;;;;
2020/08/30 20:05:13;;;;;;;2.7;2.2;;;;;;;12.25;100;95017.88;;;;
2020/08/30 20:06:20;;;;;;;2.7;2.2;;;;;;;12.25;100;95017.88;;;;
2020/08/30 20:07:33;;;;;;;2.7;2.2;;;;;;;12.25;100;95017.88;;;;
2020/08/30 20:08:38;;;;;;;2.7;2.2;;;;;;;12.25;100;95017.88;;;;
2020/08/30 20:09:42;;;;;;;2.7;2.2;;;;;;;12.25;100;95017.88;;;;
2020/08/30 20:10:48;;;;;;;1.8;1.4;;;;;;;12.19;100;95036.06;;;;
2020/08/30 20:11:56;;;;;;;1.8;1.4;;;;;;;12.19;100;95036.06;;;;
2020/08/30 20:13:01;;;;;;;1.8;1.4;;;;;;;12.19;100;95036.06;;;;
2020/08/30 20:14:04;;;;;;;1.8;1.4;;;;;;;12.19;100;95036.06;;;;
2020/08/30 20:15:09;;;;;;;1.8;1.4;;;;;;;12.19;100;95036.06;;;;
2020/08/30 20:16:16;;;;;;;1.8;1.4;;;;;;;12.19;100;95036.06;;;;
2020/08/30 20:17:21;;;;;;;1.8;1.4;;;;;;;12.19;100;95036.06;;;;
2020/08/30 20:18:28;;;;;;;1.8;1.4;;;;;;;12.19;100;95036.06;;;;
2020/08/30 20:19:34;;;;;;;1.8;1.4;;;;;;;12.19;100;95036.06;;;;
2020/08/30 20:20:39;;;;;;;1.8;1.4;;;;;;;12.19;100;95036.06;;;;
2020/08/30 20:21:44;;;;;;;2.5;1.8;;;;;;;12.17;100;95051.73;;;;
2020/08/30 20:22:49;;;;;;;2.5;1.8;;;;;;;12.17;100;95051.73;;;;
2020/08/30 20:23:54;;;;;;;2.5;1.8;;;;;;;12.17;100;95051.73;;;;
2020/08/30 20:25:00;;;;;;;2.5;1.8;;;;;;;12.17;100;95051.73;;;;
2020/08/30 20:26:13;;;;;;;2.5;1.8;;;;;;;12.17;100;95051.73;;;;
2020/08/30 20:27:20;;;;;;;2.5;1.8;;;;;;;12.17;100;95051.73;;;;
2020/08/30 20:28:27;;;;;;;2.5;1.8;;;;;;;12.17;100;95051.73;;;;
2020/08/30 20:29:32;;;;;;;2.5;1.8;;;;;;;12.17;100;95051.73;;;;
2020/08/30 20:30:38;;;;;;;2.5;1.8;;;;;;;12.17;100;95051.73;;;;
2020/08/30 20:31:43;;;;;;;2.5;1.8;;;;;;;12.17;100;95051.73;;;;
2020/08/30 20:32:49;;;;;;;2.4;2.2;;;;;;;12.11;100;95064.79;;;;
2020/08/30 20:33:56;;;;;;;2.4;2.2;;;;;;;12.11;100;95064.79;;;;
2020/08/30 20:35:00;;;;;;;2.4;2.2;;;;;;;12.11;100;95064.79;;;;
2020/08/30 20:36:05;;;;;;;2.4;2.2;;;;;;;12.11;100;95064.79;;;;
2020/08/30 20:37:18;;;;;;;2.4;2.2;;;;;;;12.11;100;95064.79;;;;
2020/08/30 20:38:24;;;;;;;2.4;2.2;;;;;;;12.11;100;95064.79;;;;
2020/08/30 20:39:30;;;;;;;2.4;2.2;;;;;;;12.11;100;95064.79;;;;
2020/08/30 20:40:34;;;;;;;2.4;2.2;;;;;;;12.11;100;95064.79;;;;
2020/08/30 20:41:41;;;;;;;2.4;2.2;;;;;;;12.11;100;95064.79;;;;
2020/08/30 20:42:46;;;;;;;2.55;2.35;;;;;;;12.1;100;95078.99;;;;
2020/08/30 20:43:51;;;;;;;2.55;2.35;;;;;;;12.1;100;95078.99;;;;
2020/08/30 20:44:58;;;;;;;2.55;2.35;;;;;;;12.1;100;95078.99;;;;
2020/08/30 20:46:06;;;;;;;2.55;2.35;;;;;;;12.1;100;95078.99;;;;
2020/08/30 20:47:11;;;;;;;2.55;2.35;;;;;;;12.1;100;95078.99;;;;
2020/08/30 20:48:17;;;;;;;2.55;2.35;;;;;;;12.1;100;95078.99;;;;
2020/08/30 20:49:22;;;;;;;2.55;2.35;;;;;;;12.1;100;95078.99;;;;
2020/08/30 20:50:28;;;;;;;2.55;2.35;;;;;;;12.1;100;95078.99;;;;
2020/08/30 20:51:35;;;;;;;2.55;2.35;;;;;;;12.1;100;95078.99;;;;
2020/08/30 20:52:40;;;;;;;2.55;2.35;;;;;;;12.1;100;95078.99;;;;
2020/08/30 20:53:47;;;;;;;3.1;2.7;;;;;;;12.03;100;95095.39;;;;
2020/08/30 21:04:19;;;;;;;2.900001;2.7;;;;;;;11.99;100;95104.27;;;;
2020/08/30 21:05:22;;;;;;;2.900001;2.7;;;;;;;11.99;100;95104.27;;;;
2020/08/30 21:06:28;;;;;;;2.900001;2.7;;;;;;;11.99;100;95104.27;;;;
2020/08/30 21:07:32;;;;;;;2.900001;2.7;;;;;;;11.99;100;95104.27;;;;
2020/08/30 21:08:38;;;;;;;2.900001;2.7;;;;;;;11.99;100;95104.27;;;;
2020/08/30 21:09:44;;;;;;;2.900001;2.7;;;;;;;11.99;100;95104.27;;;;
2020/08/30 21:10:50;;;;;;;2.900001;2.7;;;;;;;11.99;100;95104.27;;;;
2020/08/30 21:11:55;;;;;;;2.900001;2.7;;;;;;;11.99;100;95104.27;;;;
2020/08/30 21:13:03;;;;;;;2.900001;2.7;;;;;;;11.99;100;95104.27;;;;
2020/08/30 21:14:08;;;;;;;2.900001;2.7;;;;;;;11.99;100;95104.27;;;;
2020/08/30 21:15:14;;;;;;;2.6;2.4;;;;;;;11.89;100;95128.49;;;;
2020/08/30 21:16:24;;;;;;;2.6;2.4;;;;;;;11.89;100;95128.49;;;;
2020/08/30 21:17:30;;;;;;;2.6;2.4;;;;;;;11.89;100;95128.49;;;;
2020/08/30 21:18:40;;;;;;;2.6;2.4;;;;;;;11.89;100;95128.49;;;;
2020/08/30 21:19:46;;;;;;;2.6;2.4;;;;;;;11.89;100;95128.49;;;;
2020/08/30 21:20:52;;;;;;;2.6;2.4;;;;;;;11.89;100;95128.49;;;;
2020/08/30 21:22:00;;;;;;;2.6;2.4;;;;;;;11.89;100;95128.49;;;;
2020/08/30 21:23:05;;;;;;;2.6;2.4;;;;;;;11.89;100;95128.49;;;;
2020/08/30 21:24:13;;;;;;;2.6;2.4;;;;;;;11.89;100;95128.49;;;;
2020/08/30 21:25:19;;;;;;;2.35;2.15;;;;;;;11.81;100;95136.06;;;;
2020/08/30 21:26:25;;;;;;;2.35;2.15;;;;;;;11.81;100;95136.06;;;;
2020/08/30 21:27:45;;;;;;;2.35;2.15;;;;;;;11.81;100;95136.06;;;;
2020/08/30 21:28:50;;;;;;;2.35;2.15;;;;;;;11.81;100;95136.06;;;;
2020/08/30 21:29:55;;;;;;;2.35;2.15;;;;;;;11.81;100;95136.06;;;;
2020/08/30 21:31:00;;;;;;;2.35;2.15;;;;;;;11.81;100;95136.06;;;;
2020/08/30 21:32:05;;;;;;;2.35;2.15;;;;;;;11.81;100;95136.06;;;;
2020/08/30 21:33:09;;;;;;;2.35;2.15;;;;;;;11.81;100;95136.06;;;;
2020/08/30 21:34:15;;;;;;;2.35;2.15;;;;;;;11.81;100;95136.06;;;;
2020/08/30 21:35:22;;;;;;;2.35;2.15;;;;;;;11.81;100;95136.06;;;;
2020/08/30 21:36:31;;;;;;;1.85;1.75;;;;;;;11.76;100;95144.51;;;;
2020/08/30 21:37:37;;;;;;;1.85;1.75;;;;;;;11.76;100;95144.51;;;;
2020/08/30 21:38:42;;;;;;;1.85;1.75;;;;;;;11.76;100;95144.51;;;;
2020/08/30 21:39:47;;;;;;;1.85;1.75;;;;;;;11.76;100;95144.51;;;;
2020/08/30 21:40:52;;;;;;;1.85;1.75;;;;;;;11.76;100;95144.51;;;;
2020/08/30 21:41:57;;;;;;;1.85;1.75;;;;;;;11.76;100;95144.51;;;;
2020/08/30 21:43:01;;;;;;;1.85;1.75;;;;;;;11.76;100;95144.51;;;;
2020/08/30 21:44:06;;;;;;;1.85;1.75;;;;;;;11.76;100;95144.51;;;;
2020/08/30 21:45:15;;;;;;;1.85;1.75;;;;;;;11.76;100;95144.51;;;;
2020/08/30 21:46:21;;;;;;;1.85;1.75;;;;;;;11.76;100;95144.51;;;;
2020/08/30 21:47:28;;;;;;;1.7;1.35;;;;;;;11.82;100;95163.94;;;;
2020/08/30 21:48:35;;;;;;;1.7;1.35;;;;;;;11.82;100;95163.94;;;;
2020/08/30 21:49:42;;;;;;;1.7;1.35;;;;;;;11.82;100;95163.94;;;;
2020/08/30 21:50:47;;;;;;;1.7;1.35;;;;;;;11.82;100;95163.94;;;;
2020/08/30 21:51:52;;;;;;;1.7;1.35;;;;;;;11.82;100;95163.94;;;;
2020/08/30 21:52:58;;;;;;;1.7;1.35;;;;;;;11.82;100;95163.94;;;;
2020/08/30 21:54:04;;;;;;;1.7;1.35;;;;;;;11.82;100;95163.94;;;;
2020/08/30 21:55:10;;;;;;;1.7;1.35;;;;;;;11.82;100;95163.94;;;;
2020/08/30 21:56:18;;;;;;;1.7;1.35;;;;;;;11.82;100;95163.94;;;;
2020/08/30 21:57:25;;;;;;;1.35;1.25;;;;;;;11.83;100;95163.28;;;;
2020/08/30 21:58:32;;;;;;;1.35;1.25;;;;;;;11.83;100;95163.28;;;;
2020/08/30 21:59:36;;;;;;;1.35;1.25;;;;;;;11.83;100;95163.28;;;;
2020/08/30 22:00:42;;;;;;;1.35;1.25;;;;;;;11.83;100;95163.28;;;;
2020/08/30 22:01:46;;;;;;;1.35;1.25;;;;;;;11.83;100;95163.28;;;;
2020/08/30 22:02:52;;;;;;;1.35;1.25;;;;;;;11.83;100;95163.28;;;;
2020/08/30 22:03:57;;;;;;;1.35;1.25;;;;;;;11.83;100;95163.28;;;;
2020/08/30 22:05:03;;;;;;;1.35;1.25;;;;;;;11.83;100;95163.28;;;;
2020/08/30 22:06:08;;;;;;;1.35;1.25;;;;;;;11.83;100;95163.28;;;;
2020/08/30 22:07:15;;;;;;;1.35;1.25;;;;;;;11.83;100;95163.28;;;;
2020/08/30 22:08:20;;;;;;;1;1;;;;;;;11.82;100;95175.56;;;;
2020/08/30 22:09:26;;;;;;;1;1;;;;;;;11.82;100;95175.56;;;;
2020/08/30 22:10:33;;;;;;;1;1;;;;;;;11.82;100;95175.56;;;;
2020/08/30 22:11:39;;;;;;;1;1;;;;;;;11.82;100;95175.56;;;;
2020/08/30 22:12:44;;;;;;;1;1;;;;;;;11.82;100;95175.56;;;;
2020/08/30 22:13:50;;;;;;;1;1;;;;;;;11.82;100;95175.56;;;;
2020/08/30 22:14:55;;;;;;;1;1;;;;;;;11.82;100;95175.56;;;;
2020/08/30 22:16:06;;;;;;;1;1;;;;;;;11.82;100;95175.56;;;;
2020/08/30 22:17:13;;;;;;;1;1;;;;;;;11.82;100;95175.56;;;;
2020/08/30 22:18:17;;;;;;;1;1;;;;;;;11.82;100;95175.56;;;;
2020/08/30 22:19:25;;;;;;;1.25;1.15;;;;;;;11.86;100;95179.94;;;;
2020/08/30 22:20:33;;;;;;;1.25;1.15;;;;;;;11.86;100;95179.94;;;;
2020/08/30 22:21:37;;;;;;;1.25;1.15;;;;;;;11.86;100;95179.94;;;;
2020/08/30 22:22:43;;;;;;;1.25;1.15;;;;;;;11.86;100;95179.94;;;;
2020/08/30 22:23:49;;;;;;;1.25;1.15;;;;;;;11.86;100;95179.94;;;;
2020/08/30 22:24:53;;;;;;;1.25;1.15;;;;;;;11.86;100;95179.94;;;;
2020/08/30 22:26:07;;;;;;;1.25;1.15;;;;;;;11.86;100;95179.94;;;;
2020/08/30 22:27:13;;;;;;;1.25;1.15;;;;;;;11.86;100;95179.94;;;;
2020/08/30 22:28:20;;;;;;;1.25;1.15;;;;;;;11.86;100;95179.94;;;;
2020/08/30 22:29:30;;;;;;;1.3;0.9;;;;;;;11.84;100;95181.55;;;;
2020/08/30 22:30:35;;;;;;;1.3;0.9;;;;;;;11.84;100;95181.55;;;;
2020/08/30 22:31:42;;;;;;;1.3;0.9;;;;;;;11.84;100;95181.55;;;;
2020/08/30 22:32:48;;;;;;;1.3;0.9;;;;;;;11.84;100;95181.55;;;;
2020/08/30 22:33:53;;;;;;;1.3;0.9;;;;;;;11.84;100;95181.55;;;;
2020/08/30 22:34:59;;;;;;;1.3;0.9;;;;;;;11.84;100;95181.55;;;;
2020/08/30 22:36:12;;;;;;;1.3;0.9;;;;;;;11.84;100;95181.55;;;;
2020/08/30 22:37:19;;;;;;;1.3;0.9;;;;;;;11.84;100;95181.55;;;;
2020/08/30 22:38:27;;;;;;;1.3;0.9;;;;;;;11.84;100;95181.55;;;;
2020/08/30 22:39:35;;;;;;;1.3;0.9;;;;;;;11.84;100;95181.55;;;;
2020/08/30 22:40:40;;;;;;;1;1;;;;;;;11.93;100;95196.72;;;;
2020/08/30 22:41:51;;;;;;;1;1;;;;;;;11.93;100;95196.72;;;;
2020/08/30 22:42:57;;;;;;;1;1;;;;;;;11.93;100;95196.72;;;;
2020/08/30 22:44:02;;;;;;;1;1;;;;;;;11.93;100;95196.72;;;;
2020/08/30 22:45:07;;;;;;;1;1;;;;;;;11.93;100;95196.72;;;;
2020/08/30 22:46:15;;;;;;;1;1;;;;;;;11.93;100;95196.72;;;;
2020/08/30 22:47:23;;;;;;;1;1;;;;;;;11.93;100;95196.72;;;;
2020/08/30 22:48:41;;;;;;;1;1;;;;;;;11.93;100;95196.72;;;;
2020/08/30 22:49:48;;;;;;;1;1;;;;;;;11.93;100;95196.72;;;;
2020/08/30 22:50:53;;;;;;;1;1;;;;;;;11.95;100;95206.35;;;;
2020/08/30 22:52:00;;;;;;;1;1;;;;;;;11.95;100;95206.35;;;;
2020/08/30 22:53:07;;;;;;;1;1;;;;;;;11.95;100;95206.35;;;;
2020/08/30 22:54:12;;;;;;;1;1;;;;;;;11.95;100;95206.35;;;;
2020/08/30 22:55:18;;;;;;;1;1;;;;;;;11.95;100;95206.35;;;;
2020/08/30 22:56:26;;;;;;;1;1;;;;;;;11.95;100;95206.35;;;;
2020/08/30 22:57:39;;;;;;;1;1;;;;;;;11.95;100;95206.35;;;;
2020/08/30 22:58:46;;;;;;;1;1;;;;;;;11.95;100;95206.35;;;;
2020/08/30 22:59:51;;;;;;;1;1;;;;;;;11.95;100;95206.35;;;;
2020/08/30 23:00:56;;;;;;;1;1;;;;;;;11.95;100;95206.35;;;;
2020/08/30 23:03:05;;;;;;;0.9;0.9;;;;;;;11.93;100;95217.02;;;;
2020/08/30 23:04:13;;;;;;;0.9;0.9;;;;;;;11.93;100;95217.02;;;;
2020/08/30 23:05:26;;;;;;;0.9;0.9;;;;;;;11.93;100;95217.02;;;;
2020/08/30 23:06:38;;;;;;;0.9;0.9;;;;;;;11.93;100;95217.02;;;;
2020/08/30 23:07:48;;;;;;;0.9;0.9;;;;;;;11.93;100;95217.02;;;;
2020/08/30 23:08:53;;;;;;;0.9;0.9;;;;;;;11.93;100;95217.02;;;;
2020/08/30 23:09:59;;;;;;;0.9;0.9;;;;;;;11.93;100;95217.02;;;;
2020/08/30 23:11:06;;;;;;;0.9;0.9;;;;;;;11.93;100;95217.02;;;;
2020/08/30 23:12:14;;;;;;;1.45;1;;;;;;;11.86;100;95209.17;;;;
2020/08/30 23:13:20;;;;;;;1.45;1;;;;;;;11.86;100;95209.17;;;;
2020/08/30 23:14:34;;;;;;;1.45;1;;;;;;;11.86;100;95209.17;;;;
2020/08/30 23:15:40;;;;;;;1.45;1;;;;;;;11.86;100;95209.17;;;;
2020/08/30 23:16:52;;;;;;;1.45;1;;;;;;;11.86;100;95209.17;;;;
2020/08/30 23:17:59;;;;;;;1.45;1;;;;;;;11.86;100;95209.17;;;;
2020/08/30 23:19:05;;;;;;;1.45;1;;;;;;;11.86;100;95209.17;;;;
2020/08/30 23:20:13;;;;;;;1.45;1;;;;;;;11.86;100;95209.17;;;;
2020/08/30 23:21:23;;;;;;;1.45;1;;;;;;;11.86;100;95209.17;;;;
2020/08/30 23:22:36;;;;;;;1.45;1;;;;;;;11.86;100;95209.17;;;;
2020/08/30 23:23:43;;;;;;;0.95;0.95;;;;;;;11.67;100;95211.01;;;;
2020/08/30 23:24:50;;;;;;;0.95;0.95;;;;;;;11.67;100;95211.01;;;;
2020/08/30 23:25:55;;;;;;;0.95;0.95;;;;;;;11.67;100;95211.01;;;;
2020/08/30 23:27:01;;;;;;;0.95;0.95;;;;;;;11.67;100;95211.01;;;;
2020/08/30 23:28:09;;;;;;;0.95;0.95;;;;;;;11.67;100;95211.01;;;;
2020/08/30 23:29:16;;;;;;;0.95;0.95;;;;;;;11.67;100;95211.01;;;;
2020/08/30 23:30:23;;;;;;;0.95;0.95;;;;;;;11.67;100;95211.01;;;;
2020/08/30 23:31:28;;;;;;;0.95;0.95;;;;;;;11.67;100;95211.01;;;;
2020/08/30 23:32:34;;;;;;;0.95;0.95;;;;;;;11.67;100;95211.01;;;;
2020/08/30 23:33:39;;;;;;;1.35;1;;;;;;;11.42;100;95208.65;;;;
2020/08/30 23:34:44;;;;;;;1.35;1;;;;;;;11.42;100;95208.65;;;;
2020/08/30 23:35:50;;;;;;;1.35;1;;;;;;;11.42;100;95208.65;;;;
2020/08/30 23:36:56;;;;;;;1.35;1;;;;;;;11.42;100;95208.65;;;;
2020/08/30 23:38:03;;;;;;;1.35;1;;;;;;;11.42;100;95208.65;;;;
2020/08/30 23:39:09;;;;;;;1.35;1;;;;;;;11.42;100;95208.65;;;;
2020/08/30 23:40:16;;;;;;;1.35;1;;;;;;;11.42;100;95208.65;;;;
2020/08/30 23:41:23;;;;;;;1.35;1;;;;;;;11.42;100;95208.65;;;;
2020/08/30 23:42:28;;;;;;;1.35;1;;;;;;;11.42;100;95208.65;;;;
2020/08/30 23:43:35;;;;;;;1.35;1;;;;;;;11.42;100;95208.65;;;;
2020/08/30 23:44:40;;;;;;;1;1;;;;;;;11.16;100;95220.97;;;;
2020/08/30 23:45:47;;;;;;;1;1;;;;;;;11.16;100;95220.97;;;;
2020/08/30 23:46:53;;;;;;;1;1;;;;;;;11.16;100;95220.97;;;;
2020/08/30 23:47:58;;;;;;;1;1;;;;;;;11.16;100;95220.97;;;;
2020/08/30 23:49:03;;;;;;;1;1;;;;;;;11.16;100;95220.97;;;;
2020/08/30 23:50:07;;;;;;;1;1;;;;;;;11.16;100;95220.97;;;;
2020/08/30 23:51:17;;;;;;;1;1;;;;;;;11.16;100;95220.97;;;;
2020/08/30 23:52:24;;;;;;;1;1;;;;;;;11.16;100;95220.97;;;;
2020/08/30 23:53:31;;;;;;;1;1;;;;;;;11.16;100;95220.97;;;;
2020/08/30 23:54:37;;;;;;;1;1;;;;;;;11.16;100;95220.97;;;;
2020/08/30 23:55:43;;;;;;;2.3;1.2;;;;;;;10.94;100;95211.77;;;;
2020/08/30 23:56:49;;;;;;;2.3;1.2;;;;;;;10.94;100;95211.77;;;;
2020/08/30 23:57:54;;;;;;;2.3;1.2;;;;;;;10.94;100;95211.77;;;;
2020/08/30 23:59:01;;;;;;;2.3;1.2;;;;;;;10.94;100;95211.77;;;;
